Time;durP1;ratioP1;P1;durP2;ratioP2;P2;SDS_P1;SDS_P2;PMS_P1;PMS_P2;Temp;Humidity;BMP_temperature;BMP_pressure;BME280_temperature;BME280_humidity;BME280_pressure;Samples;Min_cycle;Max_cycle;Signal;HPM_P1;HPM_P2
2022/07/06 00:02:39;;;;;;;17.60;15.70;;;;;;;15.86;97.09;98806.77;219833;1276;26386;-73
2022/07/06 00:07:54;;;;;;;19.40;17.30;;;;;;;15.85;97.01;98815.52;219902;1276;23065;-72
2022/07/06 00:12:56;;;;;;;21.30;18.80;;;;;;;15.84;97.09;98814.98;219773;1276;22608;-72
2022/07/06 00:18:02;;;;;;;19.80;17.60;;;;;;;15.82;97.16;98819.57;219336;1277;610001;-73
2022/07/06 00:23:05;;;;;;;20.60;18.10;;;;;;;15.82;97.34;98821.13;219948;1276;24292;-72
2022/07/06 00:28:07;;;;;;;21.40;19.40;;;;;;;15.83;97.47;98828.77;219821;1276;22550;-72
2022/07/06 00:33:09;;;;;;;19.80;17.80;;;;;;;15.82;97.35;98825.90;219895;1276;22534;-72
2022/07/06 00:38:15;;;;;;;21.20;17.60;;;;;;;15.81;97.50;98824.20;219902;1276;22540;-70
2022/07/06 00:43:22;;;;;;;20.90;17.40;;;;;;;15.79;97.29;98820.96;219823;1276;24317;-71
2022/07/06 00:48:25;;;;;;;20.90;18.70;;;;;;;15.75;97.27;98815.20;219956;1276;22955;-72
2022/07/06 00:53:35;;;;;;;;;;;;;;;15.67;97.05;98815.75;219870;1276;22586;-72
2022/07/06 00:58:37;;;;;;;19.50;17.40;;;;;;;15.59;97.08;98810.69;219835;1276;24265;-71
2022/07/06 01:03:43;;;;;;;22.30;20.10;;;;;;;15.50;96.94;98813.88;219847;1276;22561;-72
2022/07/06 01:08:46;;;;;;;22.40;19.40;;;;;;;15.43;96.91;98813.09;219900;1276;22622;-73
2022/07/06 01:13:50;;;;;;;21.50;19.40;;;;;;;15.35;96.92;98803.19;219880;1276;24111;-73
2022/07/06 01:18:55;;;;;;;23.60;19.60;;;;;;;15.26;96.82;98798.70;219798;1276;22608;-73
2022/07/06 01:24:20;;;;;;;23.80;19.20;;;;;;;15.17;96.95;98799.61;219888;1276;24262;-72
2022/07/06 01:29:23;;;;;;;21.50;19.10;;;;;;;15.08;96.91;98799.01;219886;1276;22529;-72
2022/07/06 01:34:26;;;;;;;22.70;18.90;;;;;;;15.00;96.91;98792.18;219769;1276;22541;-72
2022/07/06 01:39:36;;;;;;;23.40;20.20;;;;;;;14.94;97.02;98793.08;219902;1276;25161;-72
2022/07/06 01:44:44;;;;;;;20.90;18.60;;;;;;;14.88;97.20;98791.65;219945;1276;24359;-73
2022/07/06 01:50:00;;;;;;;24.50;20.30;;;;;;;14.83;97.37;98786.41;219855;1276;22481;-72
2022/07/06 01:55:04;;;;;;;23.60;19.40;;;;;;;14.79;97.43;98791.86;219805;1276;22563;-73
2022/07/06 02:00:17;;;;;;;27.60;23.60;;;;;;;14.74;97.58;98799.65;219897;1276;23056;-73
2022/07/06 02:05:21;;;;;;;26.30;22.30;;;;;;;14.70;97.44;98803.14;219783;1276;22596;-71
2022/07/06 02:10:47;;;;;;;25.00;21.00;;;;;;;14.66;97.68;98799.30;219757;1280;24449;-73
2022/07/06 02:15:51;;;;;;;27.50;22.80;;;;;;;14.69;98.16;98795.23;219624;1279;24341;-72
2022/07/06 02:20:54;;;;;;;27.70;22.70;;;;;;;14.69;98.12;98796.10;219813;1279;24293;-72
2022/07/06 02:25:56;;;;;;;29.40;23.10;;;;;;;14.65;98.01;98798.02;219703;1279;22563;-71
2022/07/06 02:30:59;;;;;;;30.60;24.10;;;;;;;14.63;98.12;98798.91;219967;1278;24422;-72
2022/07/06 02:36:02;;;;;;;29.80;23.30;;;;;;;14.61;98.02;98799.64;219806;1276;25431;-72
2022/07/06 02:41:18;;;;;;;29.30;22.90;;;;;;;14.56;97.92;98796.16;220066;1276;25534;-72
2022/07/06 02:46:21;;;;;;;32.50;23.40;;;;;;;14.47;97.62;98791.62;220099;1278;25386;-72
2022/07/06 02:51:24;;;;;;;29.80;23.00;;;;;;;14.40;97.46;98788.48;220058;1276;22544;-72
2022/07/06 02:56:28;;;;;;;35.20;24.40;;;;;;;14.34;97.67;98797.85;220041;1276;25485;-70
2022/07/06 03:01:30;;;;;;;30.30;22.70;;;;;;;14.30;97.95;98811.66;220119;1276;22546;-71
2022/07/06 03:06:33;;;;;;;29.20;23.40;;;;;;;14.27;98.32;98830.19;220015;1276;24290;-72
2022/07/06 03:11:38;;;;;;;32.50;25.30;;;;;;;14.30;98.91;98845.62;219999;1276;22642;-72
2022/07/06 03:16:41;;;;;;;35.30;23.80;;;;;;;14.37;99.09;98843.42;220079;1278;25451;-71
2022/07/06 03:21:51;;;;;;;30.20;21.90;;;;;;;14.43;99.04;98840.75;219846;1276;22696;-71
2022/07/06 03:26:54;;;;;;;32.50;23.10;;;;;;;14.49;99.07;98836.11;219950;1276;22600;-71
2022/07/06 03:31:57;;;;;;;34.50;25.70;;;;;;;14.57;99.24;98835.93;219946;1276;22560;-71
2022/07/06 03:37:09;;;;;;;29.10;21.90;;;;;;;14.64;99.22;98834.31;219781;1276;26124;-73
2022/07/06 03:42:15;;;;;;;27.60;21.40;;;;;;;14.70;99.11;98847.02;219830;1280;22577;-72
2022/07/06 03:47:18;;;;;;;28.10;21.50;;;;;;;14.76;98.99;98852.73;220114;1276;22562;-72
2022/07/06 03:52:24;;;;;;;24.90;19.20;;;;;;;14.83;99.12;98863.85;219886;1278;24976;-70
2022/07/06 03:57:44;;;;;;;26.10;19.50;;;;;;;14.89;98.95;98860.94;219956;1276;22547;-71
2022/07/06 04:03:04;;;;;;;24.10;19.40;;;;;;;14.96;98.47;98862.36;219951;1278;22660;-71
2022/07/06 04:08:10;;;;;;;25.50;18.90;;;;;;;15.02;98.50;98863.19;219808;1277;22540;-73
2022/07/06 04:13:17;;;;;;;22.90;17.80;;;;;;;15.10;98.22;98867.76;219979;1277;22567;-72
2022/07/06 04:18:24;;;;;;;25.00;18.20;;;;;;;15.13;97.86;98869.07;219905;1278;22615;-72
2022/07/06 04:23:29;;;;;;;22.60;18.40;;;;;;;15.16;97.72;98865.63;220074;1276;24456;-72
2022/07/06 04:28:31;;;;;;;22.10;18.60;;;;;;;15.25;97.76;98869.46;220138;1278;24230;-70
2022/07/06 04:33:39;;;;;;;22.30;18.60;;;;;;;15.34;97.39;98871.40;219741;1278;22642;-72
2022/07/06 04:38:42;;;;;;;21.10;18.80;;;;;;;15.46;97.20;98872.32;219885;1276;22703;-71
2022/07/06 04:43:51;;;;;;;22.70;18.90;;;;;;;15.54;96.70;98869.52;220009;1278;22568;-72
2022/07/06 04:48:54;;;;;;;21.00;18.90;;;;;;;15.66;96.98;98870.14;219934;1278;22576;-70
2022/07/06 04:54:00;;;;;;;23.00;19.70;;;;;;;15.76;96.84;98862.36;219870;1278;22625;-70
2022/07/06 04:59:03;;;;;;;21.30;19.00;;;;;;;15.92;96.62;98862.48;219959;1278;22629;-71
2022/07/06 05:04:10;;;;;;;19.70;17.70;;;;;;;16.23;96.98;98868.33;219935;1278;22799;-71
2022/07/06 05:09:13;;;;;;;19.80;17.80;;;;;;;16.43;95.15;98865.58;219903;1278;23945;-71
2022/07/06 05:14:16;;;;;;;20.30;16.80;;;;;;;16.42;93.97;98874.13;219954;1278;23270;-71
2022/07/06 05:19:20;;;;;;;18.50;16.60;;;;;;;16.40;93.98;98877.59;219855;1282;25433;-71
2022/07/06 05:24:23;;;;;;;19.50;17.40;;;;;;;16.48;94.26;98879.14;219586;1281;24483;-72
2022/07/06 05:29:25;;;;;;;19.50;17.50;;;;;;;16.71;95.01;98885.21;219831;1277;22660;-71
2022/07/06 05:34:30;;;;;;;15.40;14.00;;;;;;;16.86;93.47;98890.67;219797;1278;22722;-72
2022/07/06 05:39:38;;;;;;;19.30;16.80;;;;;;;16.76;92.51;98903.42;220110;1277;25270;-72
2022/07/06 05:44:44;;;;;;;17.30;15.60;;;;;;;16.84;93.13;98914.38;220349;1278;25345;-72
2022/07/06 05:55:13;;;;;;;17.70;16.00;;;;;;;17.20;92.57;98928.02;220034;1277;23215;-74
2022/07/06 06:00:16;;;;;;;18.00;16.20;;;;;;;17.29;91.99;98945.92;220105;1278;22586;-72
2022/07/06 06:05:22;;;;;;;19.10;17.20;;;;;;;17.34;91.71;98965.00;220412;1277;22621;-70
2022/07/06 06:10:29;;;;;;;20.00;17.90;;;;;;;17.30;91.50;98964.77;220360;1277;26410;-70
2022/07/06 06:15:34;;;;;;;19.10;17.10;;;;;;;17.40;91.64;98963.66;220159;1278;22608;-70
2022/07/06 06:20:38;;;;;;;15.60;14.00;;;;;;;17.59;91.87;98960.73;219267;1277;24157;-70
2022/07/06 06:25:54;;;;;;;21.60;18.40;;;;;;;17.80;91.41;98968.17;218834;1277;26486;-72
2022/07/06 06:31:03;;;;;;;25.90;19.70;;;;;;;17.86;90.21;98973.03;218870;1276;26381;-68
2022/07/06 06:36:09;;;;;;;24.60;20.80;;;;;;;17.73;88.98;98976.09;218812;1276;22782;-71
2022/07/06 06:41:12;;;;;;;21.10;16.10;;;;;;;17.45;88.43;98979.03;220392;1277;23305;-70
2022/07/06 06:46:17;;;;;;;16.30;12.80;;;;;;;17.25;88.42;98981.36;220345;1276;22722;-71
2022/07/06 06:51:20;;;;;;;12.80;11.50;;;;;;;17.20;88.85;98985.81;220350;1278;22636;-70
2022/07/06 06:56:23;;;;;;;8.20;7.40;;;;;;;17.25;88.32;98994.58;220290;1276;22475;-70
2022/07/06 07:01:25;;;;;;;7.80;7.00;;;;;;;17.22;86.66;99002.45;220249;1276;22694;-71
2022/07/06 07:06:27;;;;;;;6.50;5.90;;;;;;;17.06;85.93;98996.17;220171;1278;25414;-71
2022/07/06 07:11:33;;;;;;;7.60;6.90;;;;;;;17.00;85.92;98999.28;220334;1276;24357;-75
2022/07/06 07:16:47;;;;;;;7.70;7.00;;;;;;;17.01;86.03;98998.65;220194;1277;22612;-71
2022/07/06 07:21:50;;;;;;;6.60;5.70;;;;;;;17.13;86.15;98994.96;220268;1276;25267;-70
2022/07/06 07:26:52;;;;;;;6.10;5.50;;;;;;;17.39;86.23;98989.76;218728;1277;23186;-70
2022/07/06 07:31:54;;;;;;;6.20;5.70;;;;;;;17.55;85.16;98994.27;220371;1276;22607;-71
2022/07/06 07:36:57;;;;;;;5.00;4.50;;;;;;;17.81;84.96;98998.61;220218;1277;22506;-70
2022/07/06 07:42:05;;;;;;;4.40;4.00;;;;;;;18.11;84.27;98997.15;218901;1277;22532;-71
2022/07/06 07:47:07;;;;;;;4.30;3.90;;;;;;;18.35;83.33;98996.14;220228;1276;22559;-70
2022/07/06 07:52:10;;;;;;;4.00;3.70;;;;;;;18.47;82.36;98991.65;220288;1276;23219;-71
2022/07/06 07:57:12;;;;;;;3.30;3.00;;;;;;;18.44;81.20;99001.86;220444;1276;22634;-72
2022/07/06 08:02:18;;;;;;;3.90;3.50;;;;;;;18.37;81.22;99006.17;220372;1276;25480;-70
2022/07/06 08:07:20;;;;;;;3.60;3.30;;;;;;;18.36;81.00;99003.98;220609;1277;25317;-73
2022/07/06 08:12:22;;;;;;;4.00;3.70;;;;;;;18.27;80.54;99001.13;220567;1276;22703;-75
2022/07/06 08:17:30;;;;;;;4.10;3.40;;;;;;;18.19;80.71;99004.97;220607;1276;22582;-72
2022/07/06 08:22:35;;;;;;;3.60;3.40;;;;;;;18.12;80.60;98997.20;221345;1276;22550;-71
2022/07/06 08:27:40;;;;;;;2.80;2.60;;;;;;;18.11;80.81;99000.64;222840;1276;22568;-73
2022/07/06 08:32:43;;;;;;;2.70;2.50;;;;;;;18.18;80.62;98996.41;221019;1276;22723;-73
2022/07/06 08:38:06;;;;;;;3.60;2.90;;;;;;;18.22;80.07;98992.83;221267;1276;25258;-75
2022/07/06 08:43:09;;;;;;;3.10;2.80;;;;;;;18.34;80.23;98983.92;221464;1276;25261;-74
2022/07/06 08:48:12;;;;;;;2.90;2.70;;;;;;;18.50;79.96;98989.03;221057;1276;22536;-73
2022/07/06 08:53:16;;;;;;;2.60;2.40;;;;;;;18.63;79.45;98981.52;221960;1276;24214;-73
2022/07/06 08:58:19;;;;;;;3.10;2.80;;;;;;;18.80;78.79;98991.19;220783;1276;22553;-72
2022/07/06 09:03:26;;;;;;;3.80;2.40;;;;;;;19.04;78.68;98998.73;220519;1276;22885;-75
2022/07/06 09:08:37;;;;;;;2.60;2.40;;;;;;;19.36;78.69;98994.05;220807;1276;24236;-73
2022/07/06 09:13:40;;;;;;;;;;;;;;;19.67;77.61;98986.05;220541;1276;22483;-74
2022/07/06 09:18:46;;;;;;;2.50;2.30;;;;;;;19.98;77.09;98989.06;220963;1276;25521;-73
2022/07/06 09:23:54;;;;;;;2.80;2.50;;;;;;;20.25;76.03;98998.80;220630;1276;22603;-73
2022/07/06 09:28:59;;;;;;;2.60;2.40;;;;;;;20.52;75.81;98995.53;220521;1276;24358;-72
2022/07/06 09:34:05;;;;;;;3.20;2.90;;;;;;;20.73;74.71;98981.63;220969;1276;24247;-73
2022/07/06 09:39:30;;;;;;;2.50;2.10;;;;;;;20.94;74.23;98980.95;220953;1276;25274;-73
2022/07/06 09:44:36;;;;;;;2.60;2.30;;;;;;;21.13;72.94;98983.97;220796;1276;22566;-73
2022/07/06 09:49:40;;;;;;;2.10;1.90;;;;;;;21.16;71.96;98979.52;220940;1277;23324;-72
2022/07/06 09:54:42;;;;;;;2.00;1.90;;;;;;;21.15;71.39;98975.83;220623;1277;22687;-73
2022/07/06 09:59:51;;;;;;;2.20;2.10;;;;;;;21.10;71.28;98983.52;220553;1276;26470;-72
2022/07/06 10:04:55;;;;;;;2.30;2.10;;;;;;;20.99;70.98;98987.55;220618;1276;22549;-72
2022/07/06 10:10:02;;;;;;;1.80;1.70;;;;;;;20.91;70.12;98996.21;220658;1276;22662;-73
2022/07/06 10:15:06;;;;;;;4.20;2.60;;;;;;;20.70;70.12;98987.92;220739;1276;22586;-73
2022/07/06 10:20:11;;;;;;;2.00;1.90;;;;;;;20.74;71.35;98993.86;220503;1277;24182;-73
2022/07/06 10:25:18;;;;;;;2.20;2.10;;;;;;;20.75;70.60;99000.95;220853;1276;22583;-72
2022/07/06 10:30:22;;;;;;;2.90;2.00;;;;;;;20.76;70.27;99000.52;220703;1276;22541;-72
2022/07/06 10:35:25;;;;;;;2.40;2.30;;;;;;;20.68;69.27;99005.74;220681;1277;22538;-73
2022/07/06 10:46:20;;;;;;;3.20;2.20;;;;;;;20.46;69.36;99010.84;220753;1276;23308;-73
2022/07/06 10:51:28;;;;;;;3.40;2.60;;;;;;;20.64;69.82;99014.52;220689;1276;23093;-73
2022/07/06 10:56:46;;;;;;;2.00;1.80;;;;;;;20.78;69.00;99017.46;220634;1276;22597;-73
2022/07/06 11:02:24;;;;;;;2.30;2.10;;;;;;;21.00;69.04;99022.95;220606;1276;22661;-73
2022/07/06 11:07:51;;;;;;;2.70;2.10;;;;;;;21.20;68.45;99026.92;220585;1276;24231;-73
2022/07/06 11:13:31;;;;;;;2.30;2.10;;;;;;;21.54;67.70;99021.18;220649;1276;24242;-73
2022/07/06 11:19:05;;;;;;;2.50;2.30;;;;;;;21.68;66.60;99026.25;220395;1276;25372;-72
2022/07/06 11:24:11;;;;;;;2.60;2.10;;;;;;;21.87;65.73;99029.38;220419;1276;24204;-73
2022/07/06 11:29:15;;;;;;;3.70;2.20;;;;;;;22.27;64.26;99026.64;220354;1276;22548;-73
2022/07/06 11:34:25;;;;;;;2.80;2.60;;;;;;;22.51;63.41;99028.45;220317;1275;22569;-73
2022/07/06 11:39:32;;;;;;;2.50;2.30;;;;;;;22.63;62.00;99027.48;220257;1276;22594;-73
2022/07/06 11:44:50;;;;;;;2.80;2.30;;;;;;;22.64;62.46;99019.55;220410;1276;22684;-73
2022/07/06 11:49:57;;;;;;;2.20;2.10;;;;;;;22.67;61.35;99023.04;220318;1276;22569;-73
2022/07/06 11:55:00;;;;;;;3.00;2.80;;;;;;;22.57;62.02;99022.55;220277;1276;24344;-73
2022/07/06 12:00:03;;;;;;;3.40;3.00;;;;;;;22.42;61.86;99028.75;220211;1276;24316;-73
2022/07/06 12:05:29;;;;;;;5.20;4.70;;;;;;;22.27;62.20;99025.15;220294;1276;22688;-73
2022/07/06 12:10:38;;;;;;;3.60;3.30;;;;;;;22.06;62.48;99020.63;220168;1276;22704;-73
2022/07/06 12:15:44;;;;;;;4.80;3.30;;;;;;;21.83;62.27;99022.89;212604;1276;10381490;-72
2022/07/06 12:20:46;;;;;;;3.70;3.40;;;;;;;21.81;62.91;99016.39;220290;1276;24294;-72
2022/07/06 12:25:56;;;;;;;3.50;3.20;;;;;;;22.04;62.04;99001.27;220392;1276;24264;-73
2022/07/06 12:31:00;;;;;;;2.60;2.40;;;;;;;22.44;61.70;98998.06;220373;1276;24211;-73
2022/07/06 12:36:15;;;;;;;2.50;2.30;;;;;;;22.93;60.17;99001.77;220483;1276;22712;-73
2022/07/06 12:41:31;;;;;;;5.70;2.90;;;;;;;23.30;59.15;98991.36;220484;1276;24242;-72
2022/07/06 12:46:39;;;;;;;3.10;2.80;;;;;;;23.52;56.66;98996.65;220418;1276;23101;-72
2022/07/06 12:51:56;;;;;;;4.20;3.30;;;;;;;23.66;56.87;98991.99;220264;1276;22714;-72
2022/07/06 12:57:21;;;;;;;3.10;2.80;;;;;;;23.78;56.22;98992.92;220442;1276;24280;-73
2022/07/06 13:02:31;;;;;;;3.50;2.60;;;;;;;23.58;55.58;98992.68;220818;1276;22556;-73
2022/07/06 13:07:57;;;;;;;3.80;3.40;;;;;;;23.66;56.17;98985.73;220385;1276;25367;-74
2022/07/06 13:13:03;;;;;;;2.60;2.20;;;;;;;23.86;55.13;98984.44;220397;1276;24141;-72
2022/07/06 13:18:09;;;;;;;4.00;3.00;;;;;;;24.01;54.51;98980.64;220437;1276;22724;-73
2022/07/06 13:23:14;;;;;;;;;;;;;;;24.28;52.95;98980.30;220324;1276;23402;-73
2022/07/06 13:28:17;;;;;;;2.80;2.50;;;;;;;24.38;51.60;98976.10;220299;1276;22556;-73
2022/07/06 13:33:19;;;;;;;7.90;5.60;;;;;;;24.34;51.45;98973.01;220235;1276;24313;-72
2022/07/06 13:38:23;;;;;;;2.50;2.10;;;;;;;24.36;51.82;98970.29;220466;1276;22619;-72
2022/07/06 13:43:25;;;;;;;2.50;2.20;;;;;;;24.42;51.88;98966.60;220103;1276;26526;-72
2022/07/06 13:48:30;;;;;;;3.60;2.60;;;;;;;24.46;50.78;98961.71;220548;1276;25381;-72
2022/07/06 13:53:32;;;;;;;2.00;1.90;;;;;;;24.59;50.21;98957.84;220367;1276;22558;-72
2022/07/06 13:58:38;;;;;;;2.00;1.90;;;;;;;24.47;49.32;98951.39;220601;1276;22543;-74
2022/07/06 14:03:41;;;;;;;1.90;1.80;;;;;;;24.32;49.39;98941.55;220264;1276;25333;-74
2022/07/06 14:08:43;;;;;;;1.90;1.70;;;;;;;24.25;50.19;98944.55;220150;1276;22560;-74
2022/07/06 14:13:46;;;;;;;2.20;2.00;;;;;;;24.16;50.24;98936.71;220255;1276;22538;-73
2022/07/06 14:18:52;;;;;;;2.40;2.20;;;;;;;24.10;50.10;98935.64;220156;1276;24291;-74
2022/07/06 14:23:57;;;;;;;2.00;1.90;;;;;;;23.87;50.47;98939.69;220241;1276;22584;-73
2022/07/06 14:29:02;;;;;;;2.70;2.50;;;;;;;23.76;50.82;98930.31;220280;1277;22684;-73
2022/07/06 14:34:14;;;;;;;2.80;2.40;;;;;;;23.84;50.62;98926.89;220326;1276;24233;-74
2022/07/06 14:39:19;;;;;;;1.90;1.80;;;;;;;23.94;49.50;98930.79;220188;1276;22712;-73
2022/07/06 14:44:35;;;;;;;2.30;2.20;;;;;;;23.80;49.48;98933.88;220216;1276;22573;-73
2022/07/06 14:49:38;;;;;;;2.20;2.00;;;;;;;23.67;48.95;98932.09;220161;1276;23807;-74
2022/07/06 15:00:31;;;;;;;2.30;1.60;;;;;;;22.56;48.65;98971.66;220205;1276;24521;-73
2022/07/06 15:05:36;;;;;;;3.20;1.80;;;;;;;21.77;49.78;98979.91;220229;1277;22724;-73
2022/07/06 15:11:22;;;;;;;2.70;1.60;;;;;;;21.45;51.04;98979.08;220012;1276;24239;-73
2022/07/06 15:16:44;;;;;;;;;;;;;;;;;;;;;
2022/07/06 15:22:21;;;;;;;2.40;1.60;;;;;;;21.07;52.15;98976.37;220060;1276;25219;-73
2022/07/06 15:27:30;;;;;;;1.80;1.50;;;;;;;21.05;53.01;98980.28;220087;1276;22599;-72
2022/07/06 15:32:35;;;;;;;1.50;1.40;;;;;;;21.13;53.57;98985.61;220078;1276;24290;-73
2022/07/06 15:37:38;;;;;;;1.40;1.30;;;;;;;21.09;53.12;98983.02;219913;1276;24259;-74
2022/07/06 15:42:57;;;;;;;1.60;1.50;;;;;;;21.02;53.30;98974.61;220103;1276;22576;-73
2022/07/06 15:48:28;;;;;;;2.00;1.50;;;;;;;20.98;53.78;98973.44;220121;1276;25257;-73
2022/07/06 15:53:33;;;;;;;1.50;1.30;;;;;;;20.97;53.97;98973.08;220111;1276;22598;-73
2022/07/06 15:58:48;;;;;;;1.90;1.50;;;;;;;20.96;53.97;98969.02;219964;1276;22564;-73
2022/07/06 16:03:57;;;;;;;1.90;1.80;;;;;;;20.87;53.82;98968.50;220013;1276;22540;-73
2022/07/06 16:08:59;;;;;;;2.20;1.40;;;;;;;20.68;53.89;98960.33;220013;1276;22728;-74
2022/07/06 16:14:01;;;;;;;1.90;1.80;;;;;;;20.65;54.43;98960.64;220072;1276;24247;-74
2022/07/06 16:19:05;;;;;;;1.70;1.30;;;;;;;20.85;54.61;98957.79;219934;1276;22566;-73
2022/07/06 16:24:10;;;;;;;2.50;1.80;;;;;;;21.05;53.67;98955.47;219943;1276;22603;-73
2022/07/06 16:29:16;;;;;;;1.80;1.70;;;;;;;21.38;53.55;98959.15;219999;1276;23345;-74
2022/07/06 16:34:18;;;;;;;2.30;2.10;;;;;;;21.68;52.35;98957.23;220076;1276;22574;-74
2022/07/06 16:39:20;;;;;;;1.90;1.60;;;;;;;21.83;51.30;98959.42;219990;1276;24293;-73
2022/07/06 16:44:28;;;;;;;1.80;1.50;;;;;;;21.95;51.68;98964.33;219986;1276;22661;-73
2022/07/06 16:49:33;;;;;;;2.60;1.30;;;;;;;22.14;51.49;98961.48;220074;1276;22697;-72
2022/07/06 16:54:47;;;;;;;1.60;1.50;;;;;;;22.08;50.61;98967.20;219816;1276;25231;-73
2022/07/06 16:59:50;;;;;;;1.80;1.50;;;;;;;21.85;50.37;98968.80;220040;1276;22644;-73
2022/07/06 17:05:14;;;;;;;1.50;1.40;;;;;;;21.57;49.92;98965.95;220225;1276;22563;-72
2022/07/06 17:10:42;;;;;;;1.40;1.30;;;;;;;21.27;50.20;98966.39;220136;1276;22560;-74
2022/07/06 17:16:07;;;;;;;2.30;1.50;;;;;;;20.98;50.05;98965.52;219986;1276;22557;-73
2022/07/06 17:21:10;;;;;;;3.20;1.40;;;;;;;20.72;50.23;98967.84;219812;1276;26245;-73
2022/07/06 17:26:13;;;;;;;1.50;1.40;;;;;;;20.56;50.59;98970.37;219964;1276;25263;-73
2022/07/06 17:31:24;;;;;;;3.00;1.50;;;;;;;20.85;51.21;98966.74;219805;1276;25324;-73
2022/07/06 17:36:28;;;;;;;1.50;1.40;;;;;;;21.74;51.77;98963.84;219725;1276;22548;-70
2022/07/06 17:41:48;;;;;;;;;;;;;;;;;;;;;
2022/07/06 17:47:00;;;;;;;1.90;1.70;;;;;;;22.48;48.94;98962.73;219955;1276;25387;-73
2022/07/06 17:53:24;;;;;;;1.80;1.70;;;;;;;21.88;48.93;98972.19;219790;1276;22869;-72
2022/07/06 17:58:47;;;;;;;2.10;1.40;;;;;;;21.23;49.44;98972.38;219858;1276;22741;-73
2022/07/06 18:03:50;;;;;;;1.60;1.50;;;;;;;20.72;50.23;98970.92;219849;1276;22599;-72
2022/07/06 18:08:58;;;;;;;1.60;1.50;;;;;;;20.34;50.91;98974.08;219847;1279;22560;-73
2022/07/06 18:14:03;;;;;;;2.80;1.70;;;;;;;20.04;51.80;98975.45;219901;1277;22725;-72
2022/07/06 18:19:06;;;;;;;1.80;1.50;;;;;;;19.74;52.23;98982.46;219879;1276;22544;-72
2022/07/06 18:24:12;;;;;;;1.80;1.50;;;;;;;19.47;52.69;98981.27;219888;1276;22712;-73
2022/07/06 18:29:24;;;;;;;2.30;1.70;;;;;;;19.24;53.49;98980.61;219765;1277;24347;-74
2022/07/06 18:34:27;;;;;;;4.00;1.70;;;;;;;19.09;54.09;98979.41;220136;1277;26416;-73
2022/07/06 18:39:43;;;;;;;4.00;1.40;;;;;;;18.97;54.54;98975.02;220285;1276;22591;-72
2022/07/06 18:44:45;;;;;;;2.40;1.60;;;;;;;18.89;55.00;98972.67;220210;1277;22575;-72
2022/07/06 18:49:48;;;;;;;2.20;1.80;;;;;;;18.83;55.45;98977.35;220118;1276;24276;-72
2022/07/06 18:54:50;;;;;;;3.00;2.40;;;;;;;18.78;56.31;98983.84;220196;1276;24335;-71
2022/07/06 18:59:52;;;;;;;2.70;2.00;;;;;;;18.72;56.34;98984.67;219910;1276;22551;-72
2022/07/06 19:05:03;;;;;;;2.00;1.90;;;;;;;18.66;56.56;98990.45;219956;1276;22547;-72
2022/07/06 19:10:07;;;;;;;2.00;1.90;;;;;;;18.60;56.78;98994.51;220009;1277;25502;-74
2022/07/06 19:15:10;;;;;;;3.10;2.10;;;;;;;18.57;57.53;98994.54;219789;1276;22962;-72
2022/07/06 19:20:12;;;;;;;2.60;1.70;;;;;;;18.52;57.49;98996.70;219860;1276;22563;-74
2022/07/06 19:25:17;;;;;;;2.00;1.80;;;;;;;18.48;58.10;99000.77;219895;1276;22545;-72
2022/07/06 19:30:35;;;;;;;3.60;2.10;;;;;;;18.44;58.40;99003.05;220088;1276;22627;-72
2022/07/06 19:35:47;;;;;;;2.10;1.90;;;;;;;18.43;58.55;99014.22;219963;1279;22573;-73
2022/07/06 19:40:49;;;;;;;2.30;2.10;;;;;;;18.39;58.91;99017.95;219931;1277;25430;-72
2022/07/06 19:45:57;;;;;;;2.30;2.00;;;;;;;18.29;59.79;99020.41;219919;1279;22560;-72
2022/07/06 19:51:06;;;;;;;2.20;2.10;;;;;;;18.19;60.75;99023.05;219837;1277;22531;-74
2022/07/06 19:56:12;;;;;;;3.80;2.80;;;;;;;18.05;61.35;99031.57;219912;1276;22562;-72
2022/07/06 20:01:15;;;;;;;3.60;2.70;;;;;;;17.91;62.15;99032.46;219546;1276;22723;-72
2022/07/06 20:06:21;;;;;;;3.70;3.40;;;;;;;17.78;62.89;99029.95;219893;1277;22721;-72
2022/07/06 20:11:23;;;;;;;5.10;4.10;;;;;;;17.71;63.57;99034.16;219788;1276;22715;-73
2022/07/06 20:16:26;;;;;;;4.60;3.90;;;;;;;17.61;64.15;99036.14;219831;1276;22662;-71
2022/07/06 20:21:28;;;;;;;4.40;4.00;;;;;;;17.49;64.51;99034.80;219965;1276;24358;-71
2022/07/06 20:26:34;;;;;;;5.30;3.80;;;;;;;17.33;64.99;99025.84;219895;1276;25421;-72
2022/07/06 20:31:42;;;;;;;4.00;3.70;;;;;;;17.18;65.47;99018.73;219961;1280;22562;-73
2022/07/06 20:36:44;;;;;;;6.40;4.80;;;;;;;17.00;65.90;99026.00;219884;1276;23028;-73
2022/07/06 20:42:06;;;;;;;4.20;3.80;;;;;;;16.84;66.42;99029.98;219871;1277;22576;-73
2022/07/06 20:47:37;;;;;;;4.60;4.20;;;;;;;16.66;66.94;99029.09;219915;1276;22598;-72
2022/07/06 20:52:53;;;;;;;5.30;4.50;;;;;;;16.52;67.64;99028.73;220124;1276;24351;-72
2022/07/06 20:58:12;;;;;;;4.70;4.00;;;;;;;16.38;68.21;99028.11;220069;1276;22525;-73
2022/07/06 21:03:15;;;;;;;6.20;4.10;;;;;;;16.26;68.66;99028.01;219942;1276;22556;-72
2022/07/06 21:08:18;;;;;;;4.90;4.50;;;;;;;16.15;69.16;99026.91;219956;1276;23128;-72
2022/07/06 21:13:27;;;;;;;8.90;6.50;;;;;;;16.02;69.84;99015.85;220001;1276;24264;-72
2022/07/06 21:18:31;;;;;;;6.40;5.60;;;;;;;15.89;70.48;99020.90;219862;1276;22783;-72
2022/07/06 21:23:36;;;;;;;5.40;4.80;;;;;;;15.76;70.94;99020.46;219901;1276;25356;-72
2022/07/06 21:28:39;;;;;;;6.90;6.20;;;;;;;15.64;71.68;99017.75;219926;1276;24394;-73
2022/07/06 21:33:41;;;;;;;5.40;5.00;;;;;;;15.56;72.17;99019.44;219821;1276;25375;-72
2022/07/06 21:38:46;;;;;;;7.10;6.20;;;;;;;15.49;72.62;99023.46;219988;1277;22964;-73
2022/07/06 21:43:49;;;;;;;9.40;8.40;;;;;;;15.46;73.27;99014.83;219866;1276;22545;-71
2022/07/06 21:48:54;;;;;;;5.30;4.80;;;;;;;15.43;73.76;99013.16;220034;1276;22633;-72
2022/07/06 21:54:07;;;;;;;5.10;4.50;;;;;;;15.42;74.24;99012.44;219931;1276;22678;-73
2022/07/06 21:59:09;;;;;;;5.40;4.90;;;;;;;15.44;74.66;99015.36;219912;1276;23101;-72
2022/07/06 22:04:12;;;;;;;7.70;5.80;;;;;;;15.45;75.02;99019.10;219804;1276;22651;-73
2022/07/06 22:09:14;;;;;;;6.70;5.60;;;;;;;15.47;75.26;99015.32;219942;1276;22683;-72
2022/07/06 22:14:21;;;;;;;7.00;6.30;;;;;;;15.49;75.65;99016.89;219933;1276;26437;-72
2022/07/06 22:19:23;;;;;;;7.00;6.30;;;;;;;15.52;75.76;99011.27;219931;1277;25316;-71
2022/07/06 22:24:26;;;;;;;8.30;5.60;;;;;;;15.58;76.23;99015.44;219942;1278;24242;-71
2022/07/06 22:29:28;;;;;;;6.90;6.20;;;;;;;15.62;76.11;99017.48;219797;1276;22542;-72
2022/07/06 22:34:31;;;;;;;7.90;5.50;;;;;;;15.62;75.87;99014.19;219780;1276;22659;-72
2022/07/06 22:39:37;;;;;;;6.80;5.00;;;;;;;15.56;75.76;99011.02;220009;1276;22603;-72
2022/07/06 22:44:51;;;;;;;6.40;5.60;;;;;;;15.43;75.46;99002.27;219907;1278;22545;-71
2022/07/06 22:49:57;;;;;;;5.60;5.10;;;;;;;15.39;75.69;99001.09;219775;1278;22555;-73
2022/07/06 22:55:09;;;;;;;5.70;5.20;;;;;;;15.40;75.80;99008.45;219874;1277;24280;-72
2022/07/06 23:00:26;;;;;;;6.30;4.60;;;;;;;15.43;75.58;99006.05;220075;1278;22544;-72
2022/07/06 23:05:28;;;;;;;5.80;5.20;;;;;;;15.45;75.09;99012.19;219806;1278;23194;-72
2022/07/06 23:11:03;;;;;;;6.30;5.40;;;;;;;15.48;75.08;99010.63;219866;1280;22611;-71
2022/07/06 23:16:11;;;;;;;4.50;4.10;;;;;;;15.50;74.93;99013.94;219973;1278;22700;-72
2022/07/06 23:21:14;;;;;;;4.50;4.10;;;;;;;15.50;74.75;99010.80;220057;1278;24240;-72
2022/07/06 23:26:27;;;;;;;4.20;3.90;;;;;;;15.51;74.70;99009.98;219798;1278;22492;-72
2022/07/06 23:31:29;;;;;;;4.70;3.80;;;;;;;15.50;74.60;99003.55;219564;1278;22555;-72
2022/07/06 23:36:32;;;;;;;4.20;3.90;;;;;;;15.51;74.73;99011.46;219825;1278;24296;-72
2022/07/06 23:41:40;;;;;;;4.10;3.70;;;;;;;15.51;74.98;99005.97;219830;1278;24229;-72
2022/07/06 23:46:42;;;;;;;4.60;4.10;;;;;;;15.50;75.03;98999.84;219905;1278;22598;-71
2022/07/06 23:51:45;;;;;;;5.00;3.70;;;;;;;15.49;75.25;99012.14;219939;1278;22645;-73
2022/07/06 23:56:50;;;;;;;4.90;4.00;;;;;;;15.47;75.25;99011.41;219827;1278;22567;-71
